< < Back
Terminal Aerodrome Forecast


Current Version              Previous Versions:   1  2  3  4  5  6  7  8  9  

Terminal Aerodrome Forecast

087
FTUS44 KMOB 240534
TAFPNS
TAF
KPNS 240534Z 2406/2506 VRB05KT P6SM SCT030 SCT100 BKN250
     FM241400 13006KT P6SM BKN040
     FM241700 16008KT P6SM VCTS BKN050CB
     FM242100 17008KT P6SM SCT050 BKN250=

Latest METAR

789
SAUS70 KWBC 250600 RRK
MTRPNS
METAR KPNS 250553Z AUTO 13009KT 10SM FEW025 28/23 A2997 RMK AO2 SLP150
T02830233 10300 20283 403280256 58007


USA.gov is the U.S. government's official web portal to all federal, state and local government web resources and services.